Time;durP1;ratioP1;P1;durP2;ratioP2;P2;SDS_P1;SDS_P2;PMS_P1;PMS_P2;Temp;Humidity;BMP_temperature;BMP_pressure;BME280_temperature;BME280_humidity;BME280_pressure;Samples;Min_cycle;Max_cycle;Signal;HPM_P1;HPM_P2
2024/03/07 00:00:14;;;;;;;47.07;25.57;;;3.80;99.90;;;;;;5095532;28;20038;-61
2024/03/07 00:03:01;;;;;;;42.85;22.55;;;3.80;99.90;;;;;;5148441;27;20166;-61
2024/03/07 00:05:46;;;;;;;44.97;24.35;;;3.80;99.90;;;;;;5154776;27;20031;-61
2024/03/07 00:08:32;;;;;;;58.80;26.42;;;3.80;99.90;;;;;;5145629;27;20133;-61
2024/03/07 00:11:18;;;;;;;44.95;25.35;;;3.80;99.90;;;;;;5154357;27;20195;-61
2024/03/07 00:14:06;;;;;;;43.25;23.42;;;3.90;99.90;;;;;;5153455;27;20030;-62
2024/03/07 00:16:52;;;;;;;47.88;26.27;;;3.90;99.90;;;;;;5149046;27;20057;-61
2024/03/07 00:19:39;;;;;;;47.00;24.65;;;3.90;99.90;;;;;;5135389;27;20035;-61
2024/03/07 00:22:26;;;;;;;47.75;24.60;;;3.80;99.90;;;;;;5141914;27;20049;-61
2024/03/07 00:25:14;;;;;;;41.63;23.27;;;3.80;99.90;;;;;;5125432;27;20392;-61
2024/03/07 00:28:03;;;;;;;44.08;24.13;;;3.70;99.90;;;;;;5141344;27;20026;-61
2024/03/07 00:30:49;;;;;;;50.90;26.70;;;3.70;99.90;;;;;;5138294;27;20035;-61
2024/03/07 00:33:35;;;;;;;50.20;27.17;;;3.80;99.90;;;;;;5137723;27;20042;-62
2024/03/07 00:36:21;;;;;;;52.13;27.40;;;3.80;99.90;;;;;;5139651;27;20475;-61
2024/03/07 00:39:11;;;;;;;51.15;28.40;;;3.80;99.90;;;;;;5137308;27;20034;-61
2024/03/07 00:41:57;;;;;;;53.33;26.80;;;3.80;99.90;;;;;;5137324;27;20038;-61
2024/03/07 00:44:43;;;;;;;50.30;27.17;;;3.80;99.90;;;;;;5139760;27;20583;-61
2024/03/07 00:47:29;;;;;;;56.63;27.85;;;3.80;99.90;;;;;;5133838;27;20054;-61
2024/03/07 00:50:15;;;;;;;52.00;27.03;;;3.80;99.90;;;;;;5145177;27;20030;-61
2024/03/07 00:53:01;;;;;;;46.40;25.70;;;3.80;99.90;;;;;;5138417;27;20030;-61
2024/03/07 00:55:47;;;;;;;47.10;26.33;;;3.80;99.90;;;;;;5137368;27;20035;-61
2024/03/07 00:58:32;;;;;;;52.83;25.80;;;3.80;99.90;;;;;;5144127;27;20038;-61
2024/03/07 01:01:19;;;;;;;49.70;27.17;;;3.80;99.90;;;;;;5140882;27;20091;-61
2024/03/07 01:04:05;;;;;;;49.60;27.27;;;3.80;99.90;;;;;;5135321;27;20035;-61
2024/03/07 01:06:51;;;;;;;51.40;26.95;;;3.70;99.90;;;;;;5140660;27;20173;-59
2024/03/07 01:09:37;;;;;;;45.80;27.47;;;3.70;99.90;;;;;;5137856;27;20030;-61
2024/03/07 01:12:24;;;;;;;50.85;26.63;;;3.70;99.90;;;;;;5136481;27;20250;-61
2024/03/07 01:15:11;;;;;;;56.90;27.35;;;3.70;99.90;;;;;;5139723;27;20061;-61
2024/03/07 01:17:57;;;;;;;53.33;27.27;;;3.60;99.90;;;;;;5133171;27;20030;-61
2024/03/07 01:20:43;;;;;;;49.08;27.10;;;3.60;99.90;;;;;;5137656;27;20033;-61
2024/03/07 01:23:29;;;;;;;58.13;27.38;;;3.50;99.90;;;;;;5141320;27;20035;-61
2024/03/07 01:26:15;;;;;;;50.92;27.88;;;3.50;99.90;;;;;;5139249;27;20113;-61
2024/03/07 01:29:01;;;;;;;53.05;26.92;;;3.50;99.90;;;;;;5138141;27;20126;-61
2024/03/07 01:31:47;;;;;;;49.33;26.63;;;3.40;99.90;;;;;;5130055;27;20532;-61
2024/03/07 01:34:33;;;;;;;49.08;26.83;;;3.40;99.90;;;;;;5142752;27;20590;-61
2024/03/07 01:37:18;;;;;;;52.72;26.08;;;3.40;99.90;;;;;;5142693;27;20038;-61
2024/03/07 01:40:05;;;;;;;46.63;26.43;;;3.40;99.90;;;;;;5145515;27;20601;-61
2024/03/07 01:42:51;;;;;;;49.08;25.73;;;3.40;99.90;;;;;;5139725;27;20117;-61
2024/03/07 01:45:38;;;;;;;48.58;25.10;;;3.40;99.90;;;;;;5141723;27;20034;-61
2024/03/07 01:48:28;;;;;;;44.30;24.75;;;3.40;99.90;;;;;;5143816;27;20034;-61
2024/03/07 01:51:15;;;;;;;45.28;25.05;;;3.40;99.90;;;;;;5141859;27;20030;-61
2024/03/07 01:54:02;;;;;;;47.25;24.60;;;3.40;99.90;;;;;;5136879;27;20026;-61
2024/03/07 01:56:48;;;;;;;50.03;24.60;;;3.40;99.90;;;;;;5129683;27;20522;-61
2024/03/07 01:59:35;;;;;;;45.83;25.23;;;3.40;99.90;;;;;;5144574;27;20091;-61
2024/03/07 02:02:21;;;;;;;49.70;23.85;;;3.40;99.90;;;;;;5143077;27;20051;-61
2024/03/07 02:05:07;;;;;;;49.72;24.90;;;3.40;99.90;;;;;;5140828;27;20074;-61
2024/03/07 02:07:53;;;;;;;40.00;23.77;;;3.30;99.90;;;;;;5137391;27;20156;-61
2024/03/07 02:10:39;;;;;;;50.67;26.50;;;3.20;99.90;;;;;;5136797;27;20264;-61
2024/03/07 02:13:25;;;;;;;47.38;24.58;;;3.00;99.90;;;;;;5125993;27;20118;-61
2024/03/07 02:16:11;;;;;;;46.53;23.58;;;2.90;99.90;;;;;;5136601;27;20026;-61
2024/03/07 02:18:59;;;;;;;44.00;25.50;;;2.80;99.90;;;;;;5131496;27;20648;-61
2024/03/07 02:21:45;;;;;;;46.08;25.20;;;2.70;99.90;;;;;;5139553;27;20049;-61
2024/03/07 02:24:32;;;;;;;53.47;27.30;;;2.60;99.90;;;;;;5143473;27;20038;-61
2024/03/07 02:27:17;;;;;;;47.55;25.38;;;2.60;99.90;;;;;;5137983;27;20534;-61
2024/03/07 02:30:05;;;;;;;46.90;26.67;;;2.40;99.90;;;;;;5134517;27;20042;-59
2024/03/07 02:32:54;;;;;;;38.85;22.48;;;2.40;99.90;;;;;;5136141;27;20466;-61
2024/03/07 02:35:40;;;;;;;51.20;25.95;;;2.40;99.90;;;;;;5135067;27;20051;-61
2024/03/07 02:38:26;;;;;;;44.28;24.45;;;2.40;99.90;;;;;;5139990;27;20042;-61
2024/03/07 02:41:12;;;;;;;46.80;24.25;;;2.30;99.90;;;;;;5135755;27;20091;-61
2024/03/07 02:43:58;;;;;;;50.83;24.55;;;2.30;99.90;;;;;;5131806;27;20633;-61
2024/03/07 02:46:44;;;;;;;46.08;25.17;;;2.20;99.90;;;;;;5137146;27;20039;-61
2024/03/07 02:49:30;;;;;;;44.97;22.90;;;2.20;99.90;;;;;;5135701;27;20083;-61
2024/03/07 02:52:16;;;;;;;48.55;24.45;;;2.10;99.90;;;;;;5123535;27;20038;-61
2024/03/07 02:55:05;;;;;;;44.15;24.75;;;2.10;99.90;;;;;;5140496;27;20670;-61
2024/03/07 02:57:52;;;;;;;43.30;22.85;;;2.10;99.90;;;;;;5129062;27;20114;-61
2024/03/07 03:00:38;;;;;;;41.10;23.15;;;2.00;99.90;;;;;;5140001;27;20634;-61
2024/03/07 03:03:24;;;;;;;44.13;24.90;;;2.00;99.90;;;;;;5136375;27;20031;-61
2024/03/07 03:06:10;;;;;;;44.53;24.02;;;2.00;99.90;;;;;;5143475;27;20099;-61
2024/03/07 03:08:56;;;;;;;45.40;23.13;;;1.90;99.90;;;;;;5141983;27;20030;-61
2024/03/07 03:11:46;;;;;;;44.03;24.43;;;1.90;99.90;;;;;;5134598;27;20046;-61
2024/03/07 03:14:31;;;;;;;45.20;24.75;;;1.70;99.90;;;;;;5135747;27;20331;-61
2024/03/07 03:17:17;;;;;;;47.47;23.75;;;1.70;99.90;;;;;;5140099;27;20058;-61
2024/03/07 03:20:15;;;;;;;47.25;23.70;;;1.60;99.90;;;;;;5138763;27;20039;-61
2024/03/07 03:23:02;;;;;;;;;;;1.60;99.90;;;;;;5133010;27;20033;-61
2024/03/07 03:25:49;;;;;;;;;;;1.60;99.90;;;;;;5141942;27;19945;-61
2024/03/07 03:28:35;;;;;;;47.80;23.08;;;1.50;99.90;;;;;;5114383;27;20493;-61
2024/03/07 03:31:21;;;;;;;42.35;23.27;;;1.50;99.90;;;;;;5134345;27;20098;-61
2024/03/07 03:34:09;;;;;;;50.70;23.58;;;1.50;99.90;;;;;;5140630;27;20118;-61
2024/03/07 03:36:55;;;;;;;48.90;23.67;;;1.50;99.90;;;;;;5132358;27;20070;-61
2024/03/07 03:39:42;;;;;;;43.07;23.37;;;1.40;99.90;;;;;;5131773;27;20035;-61
2024/03/07 03:42:28;;;;;;;44.90;22.25;;;1.40;99.90;;;;;;5134086;27;20054;-61
2024/03/07 03:45:15;;;;;;;50.27;23.97;;;1.40;99.90;;;;;;5140520;27;20457;-61
2024/03/07 03:48:01;;;;;;;43.53;23.50;;;1.40;99.90;;;;;;5141157;27;20437;-61
2024/03/07 03:50:47;;;;;;;47.72;23.77;;;1.40;99.90;;;;;;5132542;27;20175;-61
2024/03/07 03:53:34;;;;;;;43.85;23.05;;;1.30;99.90;;;;;;5140209;27;20041;-61
2024/03/07 03:56:19;;;;;;;42.30;23.15;;;1.30;99.90;;;;;;5135171;27;20088;-61
2024/03/07 03:59:06;;;;;;;44.77;24.10;;;1.10;99.90;;;;;;5139870;27;20380;-61
2024/03/07 04:01:52;;;;;;;47.85;23.63;;;1.10;99.90;;;;;;5134045;27;20117;-61
2024/03/07 04:04:41;;;;;;;44.53;22.67;;;1.10;99.90;;;;;;5140954;27;20161;-61
2024/03/07 04:07:27;;;;;;;47.67;23.58;;;1.10;99.90;;;;;;5140740;27;20125;-61
2024/03/07 04:10:18;;;;;;;44.17;22.83;;;1.10;99.90;;;;;;5138794;27;20023;-61
2024/03/07 04:13:04;;;;;;;47.22;23.70;;;1.00;99.90;;;;;;5139019;27;20605;-60
2024/03/07 04:15:51;;;;;;;37.77;19.20;;;1.00;99.90;;;;;;5134213;27;20034;-61
2024/03/07 04:18:37;;;;;;;46.88;24.25;;;1.00;99.90;;;;;;5121880;27;20502;-61
2024/03/07 04:21:25;;;;;;;54.58;25.63;;;1.00;99.90;;;;;;5142266;27;20038;-61
2024/03/07 04:24:12;;;;;;;50.58;24.48;;;1.10;99.90;;;;;;5141585;27;20035;-61
2024/03/07 04:27:03;;;;;;;50.88;24.88;;;1.10;99.90;;;;;;5136907;27;20042;-61
2024/03/07 04:29:49;;;;;;;48.47;23.90;;;1.00;99.90;;;;;;5139096;27;20038;-61
2024/03/07 04:32:37;;;;;;;47.97;24.73;;;1.20;99.90;;;;;;5138142;27;20043;-60
2024/03/07 04:35:23;;;;;;;51.75;23.90;;;1.20;99.90;;;;;;5143418;27;20038;-60
2024/03/07 04:38:11;;;;;;;46.37;24.30;;;1.30;99.90;;;;;;5136219;27;20079;-59
2024/03/07 04:40:57;;;;;;;45.33;22.48;;;1.40;99.90;;;;;;5132754;27;20031;-60
2024/03/07 04:43:42;;;;;;;47.97;23.53;;;1.50;99.90;;;;;;5139335;27;20494;-60
2024/03/07 04:46:28;;;;;;;47.78;24.60;;;1.50;99.90;;;;;;5141190;27;20855;-60
2024/03/07 04:49:15;;;;;;;43.28;21.20;;;1.50;99.90;;;;;;5118878;27;20115;-61
2024/03/07 04:52:03;;;;;;;46.92;22.08;;;1.50;99.90;;;;;;5141826;27;20045;-60
2024/03/07 04:54:49;;;;;;;38.42;20.45;;;1.60;99.90;;;;;;5137626;27;20065;-61
2024/03/07 04:57:39;;;;;;;47.17;22.43;;;1.60;99.90;;;;;;5134425;27;20042;-60
2024/03/07 05:00:25;;;;;;;42.00;22.58;;;1.70;99.90;;;;;;5141283;27;20046;-59
2024/03/07 05:03:11;;;;;;;43.43;21.43;;;1.80;99.90;;;;;;5134744;27;20124;-61
2024/03/07 05:06:00;;;;;;;42.78;21.30;;;1.80;99.90;;;;;;5138094;27;20083;-62
2024/03/07 05:08:45;;;;;;;42.25;21.75;;;1.80;99.90;;;;;;5136796;27;20047;-61
2024/03/07 05:11:32;;;;;;;40.43;21.13;;;1.80;99.90;;;;;;5138541;27;20027;-61
2024/03/07 05:14:18;;;;;;;40.75;20.35;;;1.90;99.90;;;;;;5135688;27;20027;-61
2024/03/07 05:17:04;;;;;;;46.70;20.42;;;2.00;99.90;;;;;;5117921;27;20088;-61
2024/03/07 05:19:50;;;;;;;44.80;21.45;;;1.90;99.90;;;;;;5133220;27;20671;-60
2024/03/07 05:22:40;;;;;;;43.72;21.08;;;1.90;99.90;;;;;;5125384;27;20114;-60
2024/03/07 05:25:26;;;;;;;36.70;19.80;;;1.90;99.90;;;;;;5130117;27;20501;-60
2024/03/07 05:28:12;;;;;;;40.17;20.67;;;2.00;99.90;;;;;;5136444;27;20019;-60
2024/03/07 05:30:58;;;;;;;38.20;19.37;;;2.00;99.90;;;;;;5134167;27;20030;-60
2024/03/07 05:33:47;;;;;;;39.87;19.77;;;2.00;99.90;;;;;;5134321;27;20038;-58
2024/03/07 05:36:34;;;;;;;39.17;20.38;;;2.00;99.90;;;;;;5128248;27;20054;-59
2024/03/07 05:39:20;;;;;;;;;;;2.10;99.90;;;;;;5132284;27;20431;-60
2024/03/07 05:42:07;;;;;;;41.22;17.75;;;2.10;99.90;;;;;;5140364;27;20060;-60
2024/03/07 05:44:53;;;;;;;41.58;20.30;;;2.20;99.90;;;;;;5123957;27;20513;-60
2024/03/07 05:47:39;;;;;;;40.92;19.02;;;2.20;99.90;;;;;;5141704;27;20030;-60
2024/03/07 05:50:25;;;;;;;41.67;19.93;;;2.30;99.90;;;;;;5138796;27;20177;-61
2024/03/07 05:53:11;;;;;;;37.15;18.75;;;2.30;99.90;;;;;;5132956;27;20055;-61
2024/03/07 05:55:57;;;;;;;34.45;17.25;;;2.40;99.90;;;;;;5138544;27;20415;-61
2024/03/07 05:58:43;;;;;;;47.40;20.23;;;2.40;99.90;;;;;;5135749;27;20046;-61
2024/03/07 06:01:30;;;;;;;42.57;19.77;;;2.50;99.90;;;;;;5139945;27;20269;-60
2024/03/07 06:04:16;;;;;;;35.83;17.50;;;2.50;99.90;;;;;;5133000;27;20039;-61
2024/03/07 06:07:03;;;;;;;36.30;15.63;;;2.50;99.90;;;;;;5117816;27;20582;-60
2024/03/07 06:09:50;;;;;;;;;;;2.60;99.90;;;;;;5135309;27;20062;-61
2024/03/07 06:12:36;;;;;;;40.50;20.00;;;2.50;99.90;;;;;;5136150;27;19930;-60
2024/03/07 06:15:22;;;;;;;40.83;19.48;;;2.50;99.90;;;;;;5138302;27;20031;-61
2024/03/07 06:18:08;;;;;;;35.38;17.15;;;2.60;99.90;;;;;;5139175;27;20410;-61
2024/03/07 06:20:54;;;;;;;37.30;19.37;;;2.60;99.90;;;;;;5135961;27;20380;-61
2024/03/07 06:23:40;;;;;;;36.30;18.73;;;2.60;99.90;;;;;;5136003;27;20038;-60
2024/03/07 06:29:30;;;;;;;39.45;20.00;;;2.70;99.90;;;;;;5135585;27;20133;-60
2024/03/07 06:32:16;;;;;;;39.90;20.20;;;2.70;99.90;;;;;;5139848;27;20027;-61
2024/03/07 06:35:04;;;;;;;41.28;17.98;;;2.70;99.90;;;;;;5139223;27;20483;-61
2024/03/07 06:37:50;;;;;;;39.15;18.67;;;2.80;99.90;;;;;;5135204;27;20035;-61
2024/03/07 06:40:36;;;;;;;38.13;18.73;;;2.80;99.90;;;;;;5144442;27;20039;-60
2024/03/07 06:43:22;;;;;;;41.38;20.13;;;2.80;99.90;;;;;;5139797;27;20035;-61
2024/03/07 06:46:09;;;;;;;40.90;20.57;;;2.80;99.90;;;;;;5143152;27;20095;-59
2024/03/07 06:48:58;;;;;;;40.63;20.20;;;2.80;99.90;;;;;;5137513;27;20022;-60
2024/03/07 06:51:44;;;;;;;39.20;18.77;;;2.80;99.90;;;;;;5136440;27;20083;-60
2024/03/07 06:54:30;;;;;;;40.70;19.37;;;2.80;99.90;;;;;;5135828;27;20039;-60
2024/03/07 06:57:17;;;;;;;37.70;18.50;;;2.80;99.90;;;;;;5137394;27;20037;-60
2024/03/07 07:00:10;;;;;;;37.97;19.42;;;2.80;99.90;;;;;;5132498;27;20062;-60
2024/03/07 07:02:57;;;;;;;36.55;19.27;;;2.80;99.90;;;;;;5137283;27;20388;-60
2024/03/07 07:05:44;;;;;;;;;;;2.80;99.90;;;;;;5138532;27;20422;-60
2024/03/07 07:08:30;;;;;;;36.63;18.65;;;2.70;99.90;;;;;;5137654;27;19911;-61
2024/03/07 07:11:17;;;;;;;38.25;19.13;;;2.70;99.90;;;;;;5136612;27;20038;-62
2024/03/07 07:14:02;;;;;;;40.42;20.20;;;2.70;99.90;;;;;;5139890;27;20038;-62
2024/03/07 07:16:48;;;;;;;38.77;19.00;;;2.80;99.90;;;;;;5140592;27;20057;-62
2024/03/07 07:19:34;;;;;;;36.58;18.38;;;2.80;99.90;;;;;;5137018;27;20027;-62
2024/03/07 07:22:20;;;;;;;38.43;19.67;;;2.80;99.90;;;;;;5136093;27;20034;-61
2024/03/07 07:25:16;;;;;;;35.63;17.83;;;2.90;99.90;;;;;;5133007;27;20113;-60
2024/03/07 07:28:04;;;;;;;40.08;19.83;;;2.90;99.90;;;;;;5140579;27;20557;-60
2024/03/07 07:30:50;;;;;;;39.30;18.92;;;2.90;99.90;;;;;;5141881;27;20038;-60
2024/03/07 07:33:36;;;;;;;38.13;20.43;;;2.90;99.90;;;;;;5137024;27;20073;-60
2024/03/07 07:36:22;;;;;;;35.13;17.23;;;2.90;99.90;;;;;;5145393;27;20042;-62
2024/03/07 07:39:16;;;;;;;38.38;19.58;;;2.90;99.90;;;;;;5142526;27;20034;-61
2024/03/07 07:42:02;;;;;;;45.70;19.38;;;2.90;99.90;;;;;;5140957;27;20039;-61
2024/03/07 07:44:48;;;;;;;41.70;20.52;;;2.80;99.90;;;;;;5145209;27;20031;-61
2024/03/07 07:47:37;;;;;;;38.78;20.58;;;2.80;99.90;;;;;;5142300;27;20096;-62
2024/03/07 07:50:24;;;;;;;36.65;19.42;;;2.80;99.90;;;;;;5138525;27;20031;-62
2024/03/07 07:53:10;;;;;;;39.92;20.40;;;2.80;99.90;;;;;;5139335;27;20030;-62
2024/03/07 07:55:56;;;;;;;40.28;21.65;;;2.90;99.90;;;;;;5138740;27;20054;-61
2024/03/07 07:58:42;;;;;;;42.47;20.10;;;2.90;99.90;;;;;;5136492;27;20069;-62
2024/03/07 08:01:28;;;;;;;40.92;20.00;;;2.90;99.90;;;;;;5141986;27;20797;-61
2024/03/07 08:04:14;;;;;;;43.00;21.33;;;2.90;99.90;;;;;;5141390;27;20038;-61
2024/03/07 08:07:00;;;;;;;40.65;21.40;;;2.90;99.90;;;;;;5137202;27;20027;-61
2024/03/07 08:09:46;;;;;;;46.08;21.65;;;2.80;99.90;;;;;;5138466;27;20167;-61
2024/03/07 08:12:32;;;;;;;40.58;20.90;;;2.80;99.90;;;;;;5144187;27;20014;-61
2024/03/07 08:15:18;;;;;;;31.47;16.30;;;2.90;99.90;;;;;;5138792;27;20026;-61
2024/03/07 08:18:08;;;;;;;47.45;23.35;;;2.90;99.90;;;;;;5140615;27;20159;-61
2024/03/07 08:20:54;;;;;;;44.63;22.30;;;2.80;99.90;;;;;;5136051;27;20046;-61
2024/03/07 08:23:41;;;;;;;47.55;22.83;;;2.80;99.90;;;;;;5135786;27;20070;-61
2024/03/07 08:26:27;;;;;;;46.53;24.05;;;2.80;99.90;;;;;;5135263;27;20039;-60
2024/03/07 08:29:13;;;;;;;43.43;22.20;;;2.60;99.90;;;;;;5136942;27;20452;-61
2024/03/07 08:31:59;;;;;;;50.00;24.70;;;2.70;99.90;;;;;;5123658;27;20043;-61
2024/03/07 08:34:45;;;;;;;56.80;24.27;;;2.70;99.90;;;;;;5142688;27;20121;-62
2024/03/07 08:37:31;;;;;;;47.97;23.40;;;2.80;99.90;;;;;;5142376;27;20043;-62
2024/03/07 08:40:20;;;;;;;48.90;24.50;;;2.90;99.90;;;;;;5131736;27;20066;-62
2024/03/07 08:43:07;;;;;;;50.45;25.40;;;2.80;99.90;;;;;;5140452;27;20046;-62
2024/03/07 08:45:52;;;;;;;53.60;25.13;;;2.70;99.90;;;;;;5140519;27;20130;-61
2024/03/07 08:48:38;;;;;;;49.30;25.23;;;2.70;99.90;;;;;;5141723;27;20026;-62
2024/03/07 08:51:24;;;;;;;54.67;25.83;;;2.80;99.90;;;;;;5142562;27;20031;-62
2024/03/07 08:54:10;;;;;;;56.00;26.17;;;2.80;99.90;;;;;;5141073;27;20087;-62
2024/03/07 08:56:56;;;;;;;50.27;26.03;;;2.80;99.90;;;;;;5139841;27;20129;-62
2024/03/07 08:59:43;;;;;;;53.60;26.73;;;3.00;99.90;;;;;;5140389;27;20284;-62
2024/03/07 09:02:28;;;;;;;55.35;25.67;;;2.80;99.90;;;;;;5139333;27;20591;-62
2024/03/07 09:05:15;;;;;;;62.63;27.70;;;2.80;99.90;;;;;;5142191;27;20129;-62
2024/03/07 09:08:03;;;;;;;55.92;25.38;;;2.80;99.90;;;;;;5137766;27;20403;-62
2024/03/07 09:10:49;;;;;;;54.25;26.00;;;2.90;99.90;;;;;;5136985;27;20034;-62
2024/03/07 09:13:35;;;;;;;54.97;27.53;;;3.00;99.90;;;;;;5141292;27;20039;-62
2024/03/07 09:16:20;;;;;;;60.20;28.83;;;2.90;99.90;;;;;;5129624;27;20121;-62
2024/03/07 09:19:06;;;;;;;61.42;27.17;;;2.90;99.90;;;;;;5140125;27;20031;-62
2024/03/07 09:21:53;;;;;;;56.83;28.30;;;3.00;99.90;;;;;;5139254;27;20508;-62
2024/03/07 09:24:39;;;;;;;49.42;24.50;;;2.90;99.90;;;;;;5131665;27;20063;-62
2024/03/07 09:27:25;;;;;;;57.10;27.63;;;2.90;99.90;;;;;;5131837;27;20415;-62
2024/03/07 09:30:19;;;;;;;51.47;26.15;;;3.00;99.90;;;;;;5129568;27;20058;-62
2024/03/07 09:33:05;;;;;;;51.38;24.65;;;3.00;99.90;;;;;;5133794;27;20143;-62
2024/03/07 09:35:51;;;;;;;57.70;28.08;;;3.10;99.90;;;;;;5135849;27;20042;-62
2024/03/07 09:38:37;;;;;;;51.78;25.25;;;3.10;99.90;;;;;;5133672;27;20078;-62
2024/03/07 09:41:25;;;;;;;52.72;26.30;;;3.10;99.90;;;;;;5130097;27;20130;-62
2024/03/07 09:44:33;;;;;;;55.78;26.90;;;3.00;99.90;;;;;;5130345;27;20035;-62
2024/03/07 09:47:20;;;;;;;56.42;26.38;;;3.10;99.90;;;;;;5135238;27;20499;-62
2024/03/07 09:50:08;;;;;;;52.25;26.38;;;3.10;99.90;;;;;;5134401;27;20042;-63
2024/03/07 09:52:55;;;;;;;52.00;25.73;;;3.20;99.90;;;;;;5129453;27;20457;-62
2024/03/07 09:55:40;;;;;;;;;;;3.20;99.90;;;;;;5133595;27;20027;-62
2024/03/07 09:58:30;;;;;;;49.63;24.67;;;3.30;99.90;;;;;;5131650;27;19915;-62
2024/03/07 10:01:26;;;;;;;58.10;27.52;;;3.30;99.90;;;;;;5117380;27;20082;-62
2024/03/07 10:04:14;;;;;;;51.60;26.00;;;3.20;99.90;;;;;;5131448;27;20815;-62
2024/03/07 10:07:01;;;;;;;59.25;28.45;;;3.20;99.90;;;;;;5131720;27;20062;-61
2024/03/07 10:09:47;;;;;;;;;;;3.30;99.90;;;;;;5135415;27;20086;-62
2024/03/07 10:12:33;;;;;;;52.63;25.60;;;3.50;99.90;;;;;;5133402;27;19918;-62
2024/03/07 10:15:19;;;;;;;51.65;25.73;;;3.40;99.90;;;;;;5130795;27;20104;-62
2024/03/07 10:18:07;;;;;;;51.65;25.33;;;3.50;99.90;;;;;;5136212;27;20049;-60
2024/03/07 10:20:56;;;;;;;52.13;25.98;;;3.60;99.90;;;;;;5132556;27;20046;-61
2024/03/07 10:23:42;;;;;;;51.50;26.08;;;3.50;99.90;;;;;;5135077;27;20050;-62
2024/03/07 10:26:28;;;;;;;50.83;24.42;;;3.50;99.90;;;;;;5134792;27;20039;-62
2024/03/07 10:29:14;;;;;;;59.72;27.20;;;3.60;99.90;;;;;;5130405;27;20111;-61
2024/03/07 10:31:59;;;;;;;51.22;26.02;;;3.50;99.90;;;;;;5132897;27;20146;-62
2024/03/07 10:34:46;;;;;;;49.17;26.27;;;3.50;99.90;;;;;;5126500;27;20091;-62
2024/03/07 10:37:35;;;;;;;54.80;26.40;;;3.40;99.90;;;;;;5119710;27;20107;-62
2024/03/07 10:40:22;;;;;;;55.10;27.17;;;3.30;99.90;;;;;;5133400;27;20384;-62
2024/03/07 10:43:10;;;;;;;58.60;26.60;;;3.30;99.90;;;;;;5135738;27;20022;-62
2024/03/07 10:46:00;;;;;;;65.53;28.98;;;3.30;99.90;;;;;;5131112;27;20081;-62
2024/03/07 10:48:50;;;;;;;46.85;24.50;;;3.30;99.90;;;;;;5133116;27;20136;-62
2024/03/07 10:51:45;;;;;;;51.50;25.85;;;3.20;99.90;;;;;;5132774;27;20831;-62
2024/03/07 10:54:46;;;;;;;48.53;24.90;;;3.20;99.90;;;;;;5132464;27;20027;-62
2024/03/07 10:57:50;;;;;;;49.72;26.23;;;3.20;99.90;;;;;;5131310;27;20433;-62
2024/03/07 11:00:39;;;;;;;50.97;25.33;;;3.20;99.90;;;;;;5118577;27;20043;-62
2024/03/07 11:03:26;;;;;;;51.15;26.05;;;3.30;99.90;;;;;;5131713;27;20704;-62
2024/03/07 11:06:14;;;;;;;48.85;25.30;;;3.30;99.90;;;;;;5132369;27;20478;-62
2024/03/07 11:09:03;;;;;;;45.97;23.60;;;3.40;99.90;;;;;;5133310;27;20031;-61
2024/03/07 11:11:49;;;;;;;44.55;22.95;;;3.40;99.90;;;;;;5134026;27;20472;-62
2024/03/07 11:14:37;;;;;;;50.22;24.75;;;3.40;99.90;;;;;;5130347;27;20027;-62
2024/03/07 11:17:24;;;;;;;48.78;21.95;;;3.40;99.90;;;;;;5133605;27;20042;-61
2024/03/07 11:20:24;;;;;;;44.10;22.38;;;3.50;99.90;;;;;;5133638;27;20035;-61
2024/03/07 11:23:50;;;;;;;50.40;25.20;;;3.40;99.90;;;;;;5130795;27;20035;-62
2024/03/07 11:26:36;;;;;;;40.22;19.42;;;3.50;99.90;;;;;;5139886;27;20073;-63
2024/03/07 11:29:56;;;;;;;37.78;19.42;;;3.70;99.90;;;;;;5132689;27;20492;-61
2024/03/07 11:32:44;;;;;;;34.65;18.13;;;4.00;99.90;;;;;;5107225;27;20063;-63
2024/03/07 11:35:36;;;;;;;35.38;18.65;;;4.30;99.90;;;;;;5136365;27;20651;-63
2024/03/07 11:38:34;;;;;;;33.60;18.23;;;4.40;99.90;;;;;;5135078;27;20031;-64
2024/03/07 11:41:20;;;;;;;;;;;4.40;99.90;;;;;;5135703;27;20037;-63
2024/03/07 11:44:12;;;;;;;32.95;16.73;;;4.30;99.90;;;;;;5132208;27;19942;-63
2024/03/07 11:46:58;;;;;;;34.28;18.33;;;4.30;99.90;;;;;;5136874;27;20039;-62
2024/03/07 11:49:48;;;;;;;36.10;16.67;;;4.40;99.90;;;;;;5136937;27;20110;-63
2024/03/07 11:52:36;;;;;;;32.92;17.50;;;4.50;99.90;;;;;;5134461;27;20484;-63
2024/03/07 11:55:22;;;;;;;33.15;17.67;;;4.50;99.90;;;;;;5132816;27;20054;-63
2024/03/07 11:58:21;;;;;;;35.85;17.58;;;4.40;99.90;;;;;;5138811;27;20050;-63
2024/03/07 12:01:10;;;;;;;35.00;17.90;;;4.40;99.90;;;;;;5129018;27;20511;-63
2024/03/07 12:03:57;;;;;;;34.55;16.92;;;4.60;99.90;;;;;;5130270;27;20050;-63
2024/03/07 12:06:52;;;;;;;33.38;17.08;;;4.70;99.90;;;;;;5134708;27;20023;-64
2024/03/07 12:09:39;;;;;;;32.40;17.38;;;4.80;99.90;;;;;;5138332;27;20039;-62
2024/03/07 12:12:27;;;;;;;;;;;4.90;99.90;;;;;;5135032;27;20840;-60
2024/03/07 12:15:19;;;;;;;34.08;16.13;;;4.80;99.90;;;;;;5122894;27;19918;-61
2024/03/07 12:18:09;;;;;;;34.55;16.65;;;4.90;99.90;;;;;;5141177;27;20121;-61
2024/03/07 12:20:58;;;;;;;33.60;16.15;;;5.10;99.90;;;;;;5133787;27;20241;-62
2024/03/07 12:23:45;;;;;;;29.40;15.70;;;5.10;99.90;;;;;;5141530;27;20424;-63
2024/03/07 12:26:31;;;;;;;34.45;16.17;;;5.10;99.90;;;;;;5141131;27;20422;-63
2024/03/07 12:29:17;;;;;;;29.93;15.10;;;5.10;99.90;;;;;;5134930;27;20476;-62
2024/03/07 12:32:15;;;;;;;30.25;14.27;;;5.10;99.90;;;;;;5139690;27;20046;-62
2024/03/07 12:35:04;;;;;;;29.50;15.18;;;5.10;99.90;;;;;;5138985;27;20035;-62
2024/03/07 12:37:50;;;;;;;28.48;14.73;;;5.10;99.90;;;;;;5141652;27;20243;-62
2024/03/07 12:40:39;;;;;;;31.15;14.88;;;5.10;99.90;;;;;;5142582;27;20038;-62
2024/03/07 12:43:25;;;;;;;29.38;14.23;;;5.20;99.90;;;;;;5121934;27;20034;-62
2024/03/07 12:46:13;;;;;;;26.40;14.57;;;5.20;99.90;;;;;;5141956;27;20613;-62
2024/03/07 12:48:59;;;;;;;25.90;14.07;;;5.50;99.90;;;;;;5137984;27;20103;-62
2024/03/07 12:51:45;;;;;;;33.25;15.55;;;5.70;99.90;;;;;;5144664;27;20030;-62
2024/03/07 12:54:31;;;;;;;33.92;15.07;;;5.80;99.90;;;;;;5143324;27;20034;-62
2024/03/07 12:57:16;;;;;;;43.67;16.92;;;6.00;99.90;;;;;;5140437;27;20460;-62
2024/03/07 13:00:12;;;;;;;30.63;16.20;;;6.00;99.90;;;;;;5136452;27;20087;-62
2024/03/07 13:03:02;;;;;;;35.38;17.35;;;5.80;99.90;;;;;;5137308;27;20035;-62
2024/03/07 13:05:48;;;;;;;35.87;18.17;;;5.70;99.90;;;;;;5123795;27;20057;-61
2024/03/07 13:08:34;;;;;;;34.03;15.90;;;5.80;99.90;;;;;;5137619;27;20023;-62
2024/03/07 13:11:20;;;;;;;39.17;18.08;;;5.80;99.90;;;;;;5142034;27;20499;-61
2024/03/07 13:14:07;;;;;;;41.70;17.23;;;5.80;99.90;;;;;;5145716;27;20110;-62
2024/03/07 13:16:53;;;;;;;29.77;15.98;;;5.80;99.90;;;;;;5144413;27;20448;-62
2024/03/07 13:19:48;;;;;;;38.53;17.50;;;5.70;99.90;;;;;;5138655;27;20034;-61
2024/03/07 13:22:34;;;;;;;36.50;17.45;;;5.90;99.90;;;;;;5139641;27;20027;-62
2024/03/07 13:25:23;;;;;;;41.92;18.77;;;6.20;99.90;;;;;;5135977;27;20855;-62
2024/03/07 13:28:16;;;;;;;36.80;17.23;;;6.30;99.90;;;;;;5136824;27;20489;-62
2024/03/07 13:31:03;;;;;;;38.03;17.85;;;6.00;99.90;;;;;;5143164;27;20037;-62
2024/03/07 13:33:51;;;;;;;33.60;17.98;;;5.60;99.90;;;;;;5139466;27;20027;-62
2024/03/07 13:36:37;;;;;;;37.47;18.65;;;5.40;99.90;;;;;;5128923;27;20427;-62
2024/03/07 13:39:24;;;;;;;34.38;17.42;;;5.30;99.90;;;;;;5139003;27;20034;-62
2024/03/07 13:42:11;;;;;;;;;;;5.30;99.90;;;;;;5141810;27;20045;-61
2024/03/07 13:44:57;;;;;;;37.85;17.33;;;5.30;99.90;;;;;;5142088;27;19933;-62
2024/03/07 13:47:43;;;;;;;45.50;18.27;;;5.20;99.90;;;;;;5140317;27;20586;-61
2024/03/07 13:50:29;;;;;;;;;;;5.30;99.90;;;;;;5141306;27;20277;-62
2024/03/07 13:56:13;;;;;;;31.20;15.73;;;5.60;99.90;;;;;;5139642;27;20415;-62
2024/03/07 13:59:08;;;;;;;34.20;17.35;;;5.80;99.90;;;;;;5144048;27;20030;-62
2024/03/07 14:02:09;;;;;;;32.10;15.77;;;6.20;99.90;;;;;;5140625;27;20042;-62
2024/03/07 14:05:41;;;;;;;34.67;16.65;;;6.20;99.90;;;;;;5130295;27;20500;-62
2024/03/07 14:09:06;;;;;;;38.35;17.27;;;6.00;99.90;;;;;;5138637;27;20034;-61
2024/03/07 14:12:11;;;;;;;38.95;17.95;;;5.60;99.90;;;;;;5141810;27;20117;-62
2024/03/07 14:15:44;;;;;;;36.80;18.25;;;5.40;99.90;;;;;;5134061;27;20035;-61
2024/03/07 14:19:01;;;;;;;39.60;17.77;;;5.40;99.90;;;;;;5114072;27;20042;-61
2024/03/07 14:21:56;;;;;;;40.45;17.10;;;5.40;99.90;;;;;;5139371;27;20565;-62
2024/03/07 14:25:17;;;;;;;41.35;17.42;;;5.50;99.90;;;;;;5138853;27;20035;-61
2024/03/07 14:28:24;;;;;;;31.60;16.38;;;5.50;99.90;;;;;;5133983;27;20037;-62
2024/03/07 14:31:11;;;;;;;39.17;18.77;;;5.50;99.90;;;;;;5134636;27;20113;-61
2024/03/07 14:33:57;;;;;;;34.60;16.23;;;5.50;99.90;;;;;;5140633;27;20030;-61